Philadelphia, Pennsylvania
Traffic Map
Current Weather Conditions
Philadelphia, Pennsylvania
Overcast
Overcast
61°
Feels Like: 61°
Wind Chill: 61° Ceiling: 1200
Heat Index: 61° Visibility: 10mi
Dew Point: 58° Wind: 14mph
Humidity: 90% Direction: 60° (ENE)
Pressure: 30.21in Gusts: 23mph
Raw Report DataKPHL 302354Z 06012G20KT 10SM OVC012 16/14 A3021 RMK AO2 SLP230 60000 T01610144 10172 20161 53010
Traffic Incident Summary
Active as of:
Severity:
Category:
InformationThere was an issue retrieving the traffic information for this location. Please try a different location or try again shortly.
Advertisements
Track Severe Weather on mobile